Time;durP1;ratioP1;P1;durP2;ratioP2;P2;SDS_P1;SDS_P2;PMS_P1;PMS_P2;Temp;Humidity;BMP_temperature;BMP_pressure;BME280_temperature;BME280_humidity;BME280_pressure;Samples;Min_cycle;Max_cycle;Signal;HPM_P1;HPM_P2
2023/01/09 00:01:14;;;;;;;;;;;23.50;35.50;;;;;;475581;249;1742;-45
2023/01/09 00:03:15;;;;;;;;;;;23.50;35.50;;;;;;475708;249;1690;-45
2023/01/09 00:05:16;;;;;;;;;;;23.50;35.60;;;;;;475564;249;1699;-44
2023/01/09 00:07:17;;;;;;;;;;;23.50;35.70;;;;;;475612;249;1746;-45
2023/01/09 00:09:19;;;;;;;;;;;23.40;35.80;;;;;;475590;249;2402;-44
2023/01/09 00:11:20;;;;;;;;;;;23.10;36.20;;;;;;475619;249;2095;-45
2023/01/09 00:13:22;;;;;;;;;;;22.80;36.70;;;;;;475584;249;2256;-44
2023/01/09 00:15:23;;;;;;;;;;;22.50;37.10;;;;;;475713;249;1881;-44
2023/01/09 00:17:24;;;;;;;;;;;22.40;37.50;;;;;;475565;249;1709;-44
2023/01/09 00:19:25;;;;;;;;;;;22.20;37.70;;;;;;475615;249;1785;-44
2023/01/09 00:21:27;;;;;;;;;;;22.10;37.90;;;;;;475639;249;2208;-44
2023/01/09 00:23:28;;;;;;;;;;;22.00;38.10;;;;;;475615;249;1876;-44
2023/01/09 00:25:29;;;;;;;;;;;22.00;38.40;;;;;;475605;249;2147;-44
2023/01/09 00:27:31;;;;;;;;;;;21.90;38.50;;;;;;475620;249;2427;-44
2023/01/09 00:29:32;;;;;;;;;;;21.80;38.60;;;;;;475645;249;2200;-45
2023/01/09 00:31:34;;;;;;;;;;;21.80;38.60;;;;;;475561;249;1873;-44
2023/01/09 00:33:35;;;;;;;;;;;21.70;38.80;;;;;;475671;249;2121;-45
2023/01/09 00:35:36;;;;;;;;;;;21.60;38.80;;;;;;475738;249;1880;-45
2023/01/09 00:37:38;;;;;;;;;;;21.60;38.90;;;;;;475668;249;2423;-44
2023/01/09 00:39:39;;;;;;;;;;;21.60;39.00;;;;;;475642;249;1830;-44
2023/01/09 00:41:40;;;;;;;;;;;21.60;39.00;;;;;;475651;249;1710;-45
2023/01/09 00:43:42;;;;;;;;;;;21.60;39.00;;;;;;475572;249;1697;-44
2023/01/09 00:45:43;;;;;;;;;;;21.60;39.10;;;;;;475600;249;1924;-44
2023/01/09 00:47:44;;;;;;;;;;;21.50;39.10;;;;;;475609;249;2387;-44
2023/01/09 00:49:46;;;;;;;;;;;21.40;39.20;;;;;;475637;249;2180;-44
2023/01/09 00:51:47;;;;;;;;;;;21.40;39.30;;;;;;475530;249;2030;-44
2023/01/09 00:53:48;;;;;;;;;;;21.40;39.30;;;;;;475588;249;1858;-44
2023/01/09 00:55:50;;;;;;;;;;;21.30;39.30;;;;;;475633;249;2041;-44
2023/01/09 00:57:51;;;;;;;;;;;21.30;39.40;;;;;;475603;249;1858;-44
2023/01/09 00:59:52;;;;;;;;;;;21.30;39.40;;;;;;475603;249;2089;-44
2023/01/09 01:01:54;;;;;;;;;;;21.30;39.50;;;;;;475650;249;2140;-44
2023/01/09 01:03:55;;;;;;;;;;;21.20;39.50;;;;;;475632;249;2717;-45
2023/01/09 01:08:15;;;;;;;;;;;21.20;39.60;;;;;;475582;250;2208;-44
2023/01/09 01:10:18;;;;;;;;;;;21.20;39.70;;;;;;475709;249;1978;-45
2023/01/09 01:12:18;;;;;;;;;;;21.10;39.70;;;;;;475485;250;1735;-44
2023/01/09 01:14:19;;;;;;;;;;;21.10;39.80;;;;;;475589;249;1855;-44
2023/01/09 01:16:21;;;;;;;;;;;21.10;39.80;;;;;;475481;249;2194;-44
2023/01/09 01:18:22;;;;;;;;;;;21.00;39.80;;;;;;475640;249;2193;-44
2023/01/09 01:20:23;;;;;;;;;;;21.00;39.90;;;;;;475611;249;1847;-44
2023/01/09 01:22:25;;;;;;;;;;;21.10;39.90;;;;;;475517;249;1736;-44
2023/01/09 01:24:26;;;;;;;;;;;21.10;39.80;;;;;;475649;249;2606;-44
2023/01/09 01:26:27;;;;;;;;;;;21.40;39.50;;;;;;475473;249;1862;-45
2023/01/09 01:28:29;;;;;;;;;;;21.60;39.00;;;;;;475583;249;2212;-45
2023/01/09 01:30:30;;;;;;;;;;;21.80;38.60;;;;;;475589;249;1886;-45
2023/01/09 01:32:32;;;;;;;;;;;22.00;38.20;;;;;;475442;249;2167;-45
2023/01/09 01:34:33;;;;;;;;;;;22.10;37.90;;;;;;475657;249;1911;-45
2023/01/09 01:36:34;;;;;;;;;;;22.20;37.70;;;;;;475559;249;1982;-44
2023/01/09 01:38:36;;;;;;;;;;;22.30;37.50;;;;;;475581;249;1592;-45
2023/01/09 01:40:39;;;;;;;;;;;22.40;37.40;;;;;;475619;249;2245;-44
2023/01/09 01:42:39;;;;;;;;;;;22.50;37.30;;;;;;475560;250;2119;-45
2023/01/09 01:44:40;;;;;;;;;;;22.50;37.10;;;;;;475595;249;2025;-45
2023/01/09 01:46:41;;;;;;;;;;;22.60;36.90;;;;;;475636;249;2731;-45
2023/01/09 01:48:43;;;;;;;;;;;22.70;36.90;;;;;;475630;249;2188;-44
2023/01/09 01:50:44;;;;;;;;;;;22.70;36.80;;;;;;475554;249;1688;-45
2023/01/09 01:52:46;;;;;;;;;;;22.80;36.80;;;;;;475647;249;1877;-44
2023/01/09 01:54:47;;;;;;;;;;;22.80;36.60;;;;;;475616;249;1723;-45
2023/01/09 01:56:48;;;;;;;;;;;22.90;36.50;;;;;;475642;249;1803;-45
2023/01/09 01:58:49;;;;;;;;;;;22.90;36.50;;;;;;475578;249;1737;-45
2023/01/09 02:00:51;;;;;;;;;;;23.00;36.40;;;;;;475581;249;2104;-45
2023/01/09 02:02:52;;;;;;;;;;;23.00;36.40;;;;;;475545;249;1789;-44
2023/01/09 02:04:53;;;;;;;;;;;23.00;36.20;;;;;;475558;249;1853;-44
2023/01/09 02:06:55;;;;;;;;;;;23.10;36.30;;;;;;475574;249;1745;-44
2023/01/09 02:08:56;;;;;;;;;;;23.10;36.20;;;;;;475572;249;2207;-45
2023/01/09 02:10:57;;;;;;;;;;;23.10;36.10;;;;;;475630;249;1935;-44
2023/01/09 02:12:59;;;;;;;;;;;23.10;36.10;;;;;;475626;249;1709;-45
2023/01/09 02:15:01;;;;;;;;;;;23.20;36.00;;;;;;475616;249;1941;-45
2023/01/09 02:17:01;;;;;;;;;;;23.20;36.00;;;;;;475625;249;2453;-44
2023/01/09 02:19:03;;;;;;;;;;;23.20;36.00;;;;;;475587;249;1677;-45
2023/01/09 02:21:04;;;;;;;;;;;23.30;36.00;;;;;;475635;249;1874;-45
2023/01/09 02:23:05;;;;;;;;;;;23.30;35.90;;;;;;475639;249;2089;-44
2023/01/09 02:25:07;;;;;;;;;;;23.30;35.80;;;;;;475725;249;1931;-45
2023/01/09 02:27:08;;;;;;;;;;;23.30;35.80;;;;;;475560;249;2029;-45
2023/01/09 02:29:09;;;;;;;;;;;23.30;35.80;;;;;;475552;249;2215;-45
2023/01/09 02:31:11;;;;;;;;;;;23.30;35.70;;;;;;475594;249;2082;-45
2023/01/09 02:33:12;;;;;;;;;;;23.40;35.80;;;;;;475603;249;2113;-45
2023/01/09 02:35:13;;;;;;;;;;;23.40;35.70;;;;;;475642;249;1740;-45
2023/01/09 02:37:15;;;;;;;;;;;23.40;35.70;;;;;;475599;249;1682;-45
2023/01/09 02:39:16;;;;;;;;;;;23.40;35.70;;;;;;475665;249;1971;-45
2023/01/09 02:41:17;;;;;;;;;;;23.40;35.60;;;;;;475617;249;2024;-44
2023/01/09 02:43:19;;;;;;;;;;;23.50;35.70;;;;;;475634;249;2039;-45
2023/01/09 02:45:20;;;;;;;;;;;23.50;35.70;;;;;;475607;249;1760;-45
2023/01/09 02:47:21;;;;;;;;;;;23.50;35.60;;;;;;475520;249;2211;-44
2023/01/09 02:49:23;;;;;;;;;;;23.50;35.50;;;;;;475530;249;2235;-45
2023/01/09 02:51:24;;;;;;;;;;;23.50;35.50;;;;;;475588;249;1939;-45
2023/01/09 02:53:25;;;;;;;;;;;23.50;35.50;;;;;;475608;249;1883;-45
2023/01/09 02:55:27;;;;;;;;;;;23.50;35.50;;;;;;475736;249;1964;-45
2023/01/09 02:57:28;;;;;;;;;;;23.60;35.50;;;;;;475728;249;1724;-45
2023/01/09 02:59:29;;;;;;;;;;;23.60;35.50;;;;;;475646;249;1965;-44
2023/01/09 03:01:31;;;;;;;;;;;23.60;35.50;;;;;;475561;249;1785;-45
2023/01/09 03:03:32;;;;;;;;;;;23.60;35.40;;;;;;475667;249;1946;-45
2023/01/09 03:05:33;;;;;;;;;;;23.60;35.50;;;;;;475537;249;1834;-45
2023/01/09 03:07:35;;;;;;;;;;;23.50;35.60;;;;;;475525;249;1988;-45
2023/01/09 03:09:36;;;;;;;;;;;23.50;35.60;;;;;;475572;249;2161;-45
2023/01/09 03:11:37;;;;;;;;;;;23.30;36.00;;;;;;475673;249;1723;-45
2023/01/09 03:13:38;;;;;;;;;;;23.00;36.40;;;;;;475593;249;2325;-45
2023/01/09 03:15:40;;;;;;;;;;;22.70;36.70;;;;;;475587;249;1751;-44
2023/01/09 03:17:41;;;;;;;;;;;22.50;37.20;;;;;;475469;249;1661;-44
2023/01/09 03:19:42;;;;;;;;;;;22.30;37.50;;;;;;475591;249;2197;-44
2023/01/09 03:21:44;;;;;;;;;;;22.20;37.70;;;;;;475542;249;1987;-45
2023/01/09 03:23:45;;;;;;;;;;;22.10;37.90;;;;;;475602;249;1724;-44
2023/01/09 03:25:46;;;;;;;;;;;22.30;38.00;;;;;;475521;249;1900;-45
2023/01/09 03:27:48;;;;;;;;;;;22.40;37.60;;;;;;475537;249;1711;-44
2023/01/09 03:29:50;;;;;;;;;;;22.60;37.20;;;;;;475675;249;2208;-45
2023/01/09 03:31:50;;;;;;;;;;;22.80;37.00;;;;;;475490;249;1668;-45
2023/01/09 03:33:52;;;;;;;;;;;22.80;36.90;;;;;;475605;249;1738;-45
2023/01/09 03:35:53;;;;;;;;;;;22.70;37.00;;;;;;475659;249;1939;-45
2023/01/09 03:37:54;;;;;;;;;;;22.50;37.30;;;;;;475574;249;2231;-44
2023/01/09 03:39:56;;;;;;;;;;;22.30;37.50;;;;;;475577;249;1858;-44
2023/01/09 03:41:57;;;;;;;;;;;22.10;37.80;;;;;;475618;249;2438;-44
2023/01/09 03:43:58;;;;;;;;;;;22.00;38.10;;;;;;475566;249;1632;-44
2023/01/09 03:46:00;;;;;;;;;;;22.00;38.30;;;;;;475586;249;2245;-45
2023/01/09 03:48:01;;;;;;;;;;;21.90;38.50;;;;;;475616;249;1819;-44
2023/01/09 03:50:02;;;;;;;;;;;21.80;38.60;;;;;;475583;249;2161;-44
2023/01/09 03:52:04;;;;;;;;;;;21.80;38.60;;;;;;475744;249;1930;-44
2023/01/09 03:54:05;;;;;;;;;;;21.80;38.70;;;;;;475654;249;1641;-44
2023/01/09 03:56:06;;;;;;;;;;;21.70;38.70;;;;;;475584;249;2031;-44
2023/01/09 03:58:08;;;;;;;;;;;21.70;38.80;;;;;;475604;249;2245;-44
2023/01/09 04:00:09;;;;;;;;;;;21.60;38.80;;;;;;475606;249;2279;-44
2023/01/09 04:02:10;;;;;;;;;;;21.60;39.00;;;;;;475643;249;1912;-45
2023/01/09 04:04:12;;;;;;;;;;;21.50;39.10;;;;;;475642;249;1725;-44
2023/01/09 04:06:13;;;;;;;;;;;21.50;39.10;;;;;;475608;249;1903;-45
2023/01/09 04:08:14;;;;;;;;;;;21.50;39.10;;;;;;475638;249;1895;-44
2023/01/09 04:10:15;;;;;;;;;;;21.50;39.20;;;;;;475635;249;2204;-45
2023/01/09 04:12:17;;;;;;;;;;;21.40;39.20;;;;;;475545;249;1974;-44
2023/01/09 04:14:18;;;;;;;;;;;21.40;39.20;;;;;;475612;249;1687;-44
2023/01/09 04:16:19;;;;;;;;;;;21.40;39.30;;;;;;475647;249;1899;-45
2023/01/09 04:18:21;;;;;;;;;;;21.60;39.00;;;;;;475519;249;2069;-44
2023/01/09 04:20:22;;;;;;;;;;;21.80;38.60;;;;;;475570;249;1711;-44
2023/01/09 04:22:24;;;;;;;;;;;22.00;38.10;;;;;;475572;249;1874;-45
2023/01/09 04:24:25;;;;;;;;;;;22.20;37.90;;;;;;475687;249;1819;-44
2023/01/09 04:26:26;;;;;;;;;;;22.30;37.50;;;;;;475674;249;1702;-45
2023/01/09 04:28:27;;;;;;;;;;;22.50;37.40;;;;;;475549;249;1809;-45
2023/01/09 04:30:29;;;;;;;;;;;22.50;37.30;;;;;;475587;249;2191;-44
2023/01/09 04:32:30;;;;;;;;;;;22.50;37.20;;;;;;475770;249;1882;-44
2023/01/09 04:34:31;;;;;;;;;;;22.40;37.30;;;;;;475629;249;1903;-44
2023/01/09 04:36:34;;;;;;;;;;;22.20;37.70;;;;;;475612;249;1997;-45
2023/01/09 04:38:35;;;;;;;;;;;22.00;38.00;;;;;;475465;249;2222;-44
2023/01/09 04:40:36;;;;;;;;;;;21.80;38.30;;;;;;475618;249;1833;-44
2023/01/09 04:42:38;;;;;;;;;;;21.70;38.50;;;;;;475615;249;2179;-45
2023/01/09 04:44:39;;;;;;;;;;;21.70;38.70;;;;;;475593;249;2015;-44
2023/01/09 04:46:40;;;;;;;;;;;21.60;38.70;;;;;;475526;249;2241;-44
2023/01/09 04:48:41;;;;;;;;;;;21.60;38.80;;;;;;475616;249;1735;-44
2023/01/09 04:50:43;;;;;;;;;;;21.50;39.00;;;;;;475609;249;2196;-44
2023/01/09 04:52:44;;;;;;;;;;;21.50;39.00;;;;;;475572;249;1615;-44
2023/01/09 04:54:45;;;;;;;;;;;21.40;39.00;;;;;;475692;249;2200;-45
2023/01/09 04:56:47;;;;;;;;;;;21.40;39.10;;;;;;475657;249;1729;-45
2023/01/09 04:58:48;;;;;;;;;;;21.30;39.10;;;;;;475725;249;2084;-44
2023/01/09 05:00:49;;;;;;;;;;;21.30;39.20;;;;;;475548;249;1959;-45
2023/01/09 05:02:51;;;;;;;;;;;21.40;39.30;;;;;;475509;249;1934;-44
2023/01/09 05:04:52;;;;;;;;;;;21.30;39.30;;;;;;475642;249;2164;-45
2023/01/09 05:06:53;;;;;;;;;;;21.30;39.30;;;;;;475503;249;1741;-45
2023/01/09 05:08:55;;;;;;;;;;;21.30;39.30;;;;;;475617;249;1806;-45
2023/01/09 05:10:57;;;;;;;;;;;21.30;39.40;;;;;;475440;249;2184;-44
2023/01/09 05:12:58;;;;;;;;;;;21.30;39.30;;;;;;475539;249;2114;-44
2023/01/09 05:14:59;;;;;;;;;;;21.30;39.40;;;;;;475657;249;1669;-45
2023/01/09 05:17:01;;;;;;;;;;;21.30;39.40;;;;;;475362;249;1691;-44
2023/01/09 05:19:02;;;;;;;;;;;21.20;39.40;;;;;;475594;249;1699;-45
2023/01/09 05:21:03;;;;;;;;;;;21.20;39.40;;;;;;475500;249;1885;-45
2023/01/09 05:23:05;;;;;;;;;;;21.30;39.50;;;;;;475517;249;1760;-44
2023/01/09 05:25:06;;;;;;;;;;;21.20;39.40;;;;;;475795;249;1836;-44
2023/01/09 05:27:07;;;;;;;;;;;21.20;39.50;;;;;;475458;249;1970;-44
2023/01/09 05:29:09;;;;;;;;;;;21.20;39.40;;;;;;475517;249;2260;-44
2023/01/09 05:31:10;;;;;;;;;;;21.20;39.50;;;;;;475360;249;2188;-44
2023/01/09 05:33:11;;;;;;;;;;;21.20;39.50;;;;;;475512;249;2671;-44
2023/01/09 05:35:13;;;;;;;;;;;21.20;39.50;;;;;;475635;249;2143;-44
2023/01/09 05:37:14;;;;;;;;;;;21.20;39.50;;;;;;475434;249;1668;-45
2023/01/09 05:39:15;;;;;;;;;;;21.10;39.60;;;;;;475577;249;1905;-45
2023/01/09 05:41:17;;;;;;;;;;;21.10;39.50;;;;;;475505;249;2017;-44
2023/01/09 05:43:18;;;;;;;;;;;21.20;39.50;;;;;;475575;249;1911;-45
2023/01/09 05:45:19;;;;;;;;;;;21.10;39.50;;;;;;475619;249;1861;-44
2023/01/09 05:47:21;;;;;;;;;;;21.10;39.50;;;;;;475345;249;2153;-44
2023/01/09 05:49:22;;;;;;;;;;;21.10;39.50;;;;;;475495;249;1835;-45
2023/01/09 05:51:23;;;;;;;;;;;21.10;39.50;;;;;;475405;249;2168;-44
2023/01/09 05:53:25;;;;;;;;;;;21.10;39.40;;;;;;475545;249;1897;-44
2023/01/09 05:55:26;;;;;;;;;;;21.10;39.50;;;;;;475547;249;2115;-44
2023/01/09 05:57:28;;;;;;;;;;;21.10;39.50;;;;;;475374;249;2028;-44
2023/01/09 05:59:29;;;;;;;;;;;21.10;39.50;;;;;;475547;249;1909;-45
2023/01/09 06:01:30;;;;;;;;;;;21.10;39.50;;;;;;475483;249;1984;-44
2023/01/09 06:03:32;;;;;;;;;;;21.00;39.50;;;;;;475538;249;2134;-44
2023/01/09 06:05:33;;;;;;;;;;;21.00;39.60;;;;;;475509;249;1751;-45
2023/01/09 06:07:38;;;;;;;;;;;21.00;39.60;;;;;;475574;249;2082;-44
2023/01/09 06:09:36;;;;;;;;;;;21.10;39.60;;;;;;475323;250;2163;-44
2023/01/09 06:11:37;;;;;;;;;;;21.00;39.60;;;;;;475453;249;2228;-44
2023/01/09 06:13:39;;;;;;;;;;;21.00;39.50;;;;;;475589;249;1712;-44
2023/01/09 06:15:40;;;;;;;;;;;21.10;39.50;;;;;;475481;249;1718;-44
2023/01/09 06:17:41;;;;;;;;;;;21.00;39.60;;;;;;475483;249;1646;-45
2023/01/09 06:19:43;;;;;;;;;;;21.00;39.60;;;;;;475484;249;1712;-44
2023/01/09 06:21:44;;;;;;;;;;;21.10;39.40;;;;;;475375;249;1859;-44
2023/01/09 06:23:45;;;;;;;;;;;21.40;39.10;;;;;;475508;249;1806;-44
2023/01/09 06:25:47;;;;;;;;;;;21.60;38.70;;;;;;475571;249;1569;-44
2023/01/09 06:27:48;;;;;;;;;;;21.80;38.30;;;;;;475448;249;1894;-44
2023/01/09 06:29:49;;;;;;;;;;;22.00;38.00;;;;;;475441;249;1686;-44
2023/01/09 06:31:50;;;;;;;;;;;22.10;37.70;;;;;;475393;249;2243;-45
2023/01/09 06:33:52;;;;;;;;;;;22.20;37.50;;;;;;475557;249;1929;-45
2023/01/09 06:35:53;;;;;;;;;;;22.20;37.30;;;;;;475384;249;2191;-44
2023/01/09 06:37:54;;;;;;;;;;;22.30;37.20;;;;;;475376;249;1680;-45
2023/01/09 06:39:56;;;;;;;;;;;22.40;37.10;;;;;;475492;249;1929;-45
2023/01/09 06:41:57;;;;;;;;;;;22.50;36.90;;;;;;475489;249;1849;-45
2023/01/09 06:43:58;;;;;;;;;;;22.60;36.80;;;;;;475480;249;1944;-45
2023/01/09 06:46:00;;;;;;;;;;;22.60;36.70;;;;;;475495;249;1941;-45
2023/01/09 06:48:01;;;;;;;;;;;22.70;36.70;;;;;;475377;249;1714;-44
2023/01/09 06:50:02;;;;;;;;;;;22.70;36.60;;;;;;475299;249;1578;-45
2023/01/09 06:52:06;;;;;;;;;;;22.80;36.50;;;;;;475636;249;2211;-45
2023/01/09 06:54:05;;;;;;;;;;;22.80;36.50;;;;;;475431;250;1832;-44
2023/01/09 06:56:07;;;;;;;;;;;22.80;36.40;;;;;;475544;249;1778;-45
2023/01/09 06:58:08;;;;;;;;;;;22.90;36.30;;;;;;475606;249;2509;-45
2023/01/09 07:00:09;;;;;;;;;;;22.90;36.30;;;;;;475462;249;1739;-45
2023/01/09 07:02:11;;;;;;;;;;;22.90;36.20;;;;;;475526;249;1825;-44
2023/01/09 07:04:12;;;;;;;;;;;23.00;36.10;;;;;;475616;249;2176;-45
2023/01/09 07:06:13;;;;;;;;;;;23.00;36.10;;;;;;475439;249;1742;-45
2023/01/09 07:08:15;;;;;;;;;;;23.10;36.00;;;;;;475518;249;1717;-44
2023/01/09 07:10:16;;;;;;;;;;;23.10;36.00;;;;;;475497;249;2098;-44
2023/01/09 07:12:17;;;;;;;;;;;23.10;35.90;;;;;;475440;249;2125;-44
2023/01/09 07:14:19;;;;;;;;;;;23.10;35.90;;;;;;475155;249;1693;-45
2023/01/09 07:16:20;;;;;;;;;;;23.10;35.80;;;;;;475532;249;2192;-45
2023/01/09 07:18:21;;;;;;;;;;;23.10;35.80;;;;;;475542;249;2032;-44
2023/01/09 07:20:23;;;;;;;;;;;23.20;35.80;;;;;;475425;249;1821;-45
2023/01/09 07:22:24;;;;;;;;;;;23.20;35.70;;;;;;475369;249;1588;-44
2023/01/09 07:24:25;;;;;;;;;;;23.20;35.70;;;;;;475553;249;1709;-45
2023/01/09 07:26:27;;;;;;;;;;;23.20;35.60;;;;;;475471;249;1699;-44
2023/01/09 07:28:28;;;;;;;;;;;23.20;35.60;;;;;;475489;249;1771;-45
2023/01/09 07:30:29;;;;;;;;;;;23.30;35.60;;;;;;475402;249;2192;-44
2023/01/09 07:32:31;;;;;;;;;;;23.30;35.50;;;;;;475445;249;1667;-45
2023/01/09 07:34:32;;;;;;;;;;;23.30;35.50;;;;;;475533;249;1987;-44
2023/01/09 07:36:33;;;;;;;;;;;23.30;35.40;;;;;;475342;249;1827;-45
2023/01/09 07:38:35;;;;;;;;;;;23.40;35.40;;;;;;475534;249;1754;-44
2023/01/09 07:40:36;;;;;;;;;;;23.40;35.30;;;;;;475613;249;1713;-44
2023/01/09 07:42:37;;;;;;;;;;;23.40;35.30;;;;;;475432;249;1716;-45
2023/01/09 07:44:38;;;;;;;;;;;23.40;35.30;;;;;;475450;249;1712;-45
2023/01/09 07:46:40;;;;;;;;;;;23.40;35.30;;;;;;475458;249;2112;-45
2023/01/09 07:48:41;;;;;;;;;;;23.50;35.30;;;;;;475124;249;1646;-45
2023/01/09 07:50:42;;;;;;;;;;;23.50;35.30;;;;;;475396;249;2200;-45
2023/01/09 07:52:44;;;;;;;;;;;23.50;35.30;;;;;;475475;249;1679;-44
2023/01/09 07:54:45;;;;;;;;;;;23.50;35.20;;;;;;475393;249;1805;-45
2023/01/09 07:56:46;;;;;;;;;;;23.50;35.10;;;;;;475531;249;1904;-45
2023/01/09 07:58:48;;;;;;;;;;;23.60;35.20;;;;;;475336;249;1934;-45
2023/01/09 08:00:49;;;;;;;;;;;23.60;35.20;;;;;;475294;249;1925;-44
2023/01/09 08:02:50;;;;;;;;;;;23.60;35.10;;;;;;475200;249;2156;-44
2023/01/09 08:04:52;;;;;;;;;;;23.60;35.10;;;;;;475134;249;1712;-45
2023/01/09 08:06:53;;;;;;;;;;;23.60;35.10;;;;;;475377;249;1852;-45
2023/01/09 08:08:54;;;;;;;;;;;23.60;35.10;;;;;;475428;249;2185;-45
2023/01/09 08:10:56;;;;;;;;;;;23.60;35.10;;;;;;475383;249;2383;-45
2023/01/09 08:12:57;;;;;;;;;;;23.60;35.10;;;;;;475399;249;2118;-45
2023/01/09 08:14:59;;;;;;;;;;;23.60;35.10;;;;;;475396;249;1956;-44
2023/01/09 08:17:01;;;;;;;;;;;23.70;35.20;;;;;;475193;249;2504;-44
2023/01/09 08:19:01;;;;;;;;;;;23.50;35.30;;;;;;475255;250;1868;-45
2023/01/09 08:21:02;;;;;;;;;;;23.20;35.60;;;;;;475357;249;2427;-44
2023/01/09 08:23:04;;;;;;;;;;;23.10;35.90;;;;;;475218;249;1665;-44
2023/01/09 08:25:05;;;;;;;;;;;23.00;36.20;;;;;;475346;249;1728;-44
2023/01/09 08:27:06;;;;;;;;;;;22.80;36.40;;;;;;475230;249;1706;-45
2023/01/09 08:29:08;;;;;;;;;;;22.80;36.60;;;;;;475312;249;2009;-44
2023/01/09 08:31:09;;;;;;;;;;;22.70;36.70;;;;;;475312;249;2215;-44
2023/01/09 08:33:10;;;;;;;;;;;22.70;36.80;;;;;;475212;249;1731;-45
2023/01/09 08:35:12;;;;;;;;;;;22.60;36.80;;;;;;475226;249;1890;-45
2023/01/09 08:37:13;;;;;;;;;;;22.60;36.90;;;;;;475028;249;2018;-44
2023/01/09 08:39:14;;;;;;;;;;;22.50;37.00;;;;;;475027;249;1574;-45
2023/01/09 08:48:14;;;;;;;;;;;22.40;37.30;;;;;;475186;250;1635;-45
2023/01/09 08:50:15;;;;;;;;;;;22.30;37.40;;;;;;475207;249;2233;-45
2023/01/09 08:52:16;;;;;;;;;;;22.30;37.40;;;;;;475139;249;2195;-45
2023/01/09 08:54:18;;;;;;;;;;;22.30;37.50;;;;;;475309;249;1747;-44
2023/01/09 08:56:19;;;;;;;;;;;22.30;37.60;;;;;;475302;249;1700;-45
2023/01/09 08:58:20;;;;;;;;;;;22.30;37.60;;;;;;475418;249;1696;-45
2023/01/09 09:00:22;;;;;;;;;;;22.30;37.60;;;;;;475317;249;1730;-45
2023/01/09 09:02:23;;;;;;;;;;;22.20;37.60;;;;;;475380;249;2222;-44
2023/01/09 09:04:24;;;;;;;;;;;22.30;37.70;;;;;;475183;249;1832;-44
2023/01/09 09:06:25;;;;;;;;;;;22.20;37.80;;;;;;475026;249;1777;-45
2023/01/09 09:08:27;;;;;;;;;;;22.30;37.80;;;;;;475298;249;2083;-45
2023/01/09 09:10:28;;;;;;;;;;;22.20;37.80;;;;;;475287;249;2187;-44
2023/01/09 09:12:29;;;;;;;;;;;22.30;37.80;;;;;;475182;249;2172;-44
2023/01/09 09:16:50;;;;;;;;;;;22.30;37.70;;;;;;475293;250;1839;-44
2023/01/09 09:18:51;;;;;;;;;;;22.30;37.70;;;;;;475367;249;2193;-45
2023/01/09 09:20:53;;;;;;;;;;;22.20;37.70;;;;;;475457;249;1784;-44
2023/01/09 09:22:54;;;;;;;;;;;22.10;37.90;;;;;;475270;249;1802;-44
2023/01/09 09:24:55;;;;;;;;;;;22.10;38.00;;;;;;475352;249;2174;-45
2023/01/09 09:26:57;;;;;;;;;;;22.00;38.00;;;;;;475324;249;1763;-45
2023/01/09 09:28:58;;;;;;;;;;;22.00;38.00;;;;;;475441;249;1839;-44
2023/01/09 09:30:59;;;;;;;;;;;22.00;38.20;;;;;;475365;249;1715;-45
2023/01/09 09:33:01;;;;;;;;;;;22.00;38.20;;;;;;475275;249;2208;-44
2023/01/09 09:35:02;;;;;;;;;;;22.00;38.30;;;;;;475361;249;1714;-45
2023/01/09 09:37:03;;;;;;;;;;;22.00;38.30;;;;;;475215;249;1636;-44
2023/01/09 09:39:06;;;;;;;;;;;21.90;38.20;;;;;;475431;249;1692;-44
2023/01/09 09:41:06;;;;;;;;;;;21.90;38.30;;;;;;475219;249;2310;-44
2023/01/09 09:45:27;;;;;;;;;;;21.90;38.50;;;;;;475338;250;1837;-44
2023/01/09 09:47:28;;;;;;;;;;;21.80;38.50;;;;;;474949;249;1618;-44
2023/01/09 09:49:30;;;;;;;;;;;21.90;38.40;;;;;;475124;249;2121;-45
2023/01/09 09:51:31;;;;;;;;;;;21.80;38.40;;;;;;474805;249;2231;-44
2023/01/09 09:53:32;;;;;;;;;;;21.80;38.50;;;;;;475071;250;1591;-44
2023/01/09 09:55:34;;;;;;;;;;;21.80;38.50;;;;;;475169;249;1999;-45
2023/01/09 09:57:35;;;;;;;;;;;21.80;38.50;;;;;;475068;249;1593;-44
2023/01/09 09:59:36;;;;;;;;;;;21.70;38.50;;;;;;475336;249;1815;-45
2023/01/09 10:01:38;;;;;;;;;;;21.80;38.60;;;;;;475050;249;1521;-44
2023/01/09 10:03:39;;;;;;;;;;;21.70;38.60;;;;;;475028;249;1557;-44
2023/01/09 10:05:40;;;;;;;;;;;21.70;38.50;;;;;;474271;249;1493;-44
2023/01/09 10:07:43;;;;;;;;;;;21.70;38.60;;;;;;475156;249;1592;-44
2023/01/09 10:09:43;;;;;;;;;;;21.70;38.70;;;;;;475229;250;1708;-45
2023/01/09 10:11:44;;;;;;;;;;;21.70;38.70;;;;;;475167;249;2200;-44
2023/01/09 10:14:04;;;;;;;;;;;21.60;38.60;;;;;;475419;249;1768;-45
2023/01/09 10:16:05;;;;;;;;;;;21.60;38.70;;;;;;475176;249;1558;-44
2023/01/09 10:18:06;;;;;;;;;;;21.70;38.70;;;;;;475156;249;1794;-44
2023/01/09 10:20:08;;;;;;;;;;;21.60;38.60;;;;;;475419;249;1756;-44
2023/01/09 10:22:09;;;;;;;;;;;21.60;38.60;;;;;;475153;249;1710;-44
2023/01/09 10:24:10;;;;;;;;;;;21.60;38.60;;;;;;475374;249;1724;-44
2023/01/09 10:26:12;;;;;;;;;;;21.60;38.70;;;;;;475161;249;2260;-44
2023/01/09 10:28:13;;;;;;;;;;;21.60;38.60;;;;;;475235;249;1686;-45
2023/01/09 10:30:14;;;;;;;;;;;21.60;38.70;;;;;;475340;249;1710;-45
2023/01/09 10:32:16;;;;;;;;;;;21.60;38.70;;;;;;475057;249;2203;-45
2023/01/09 10:34:17;;;;;;;;;;;21.50;38.70;;;;;;475080;249;1635;-44
2023/01/09 10:36:18;;;;;;;;;;;21.50;38.70;;;;;;475071;249;1864;-44
2023/01/09 10:38:20;;;;;;;;;;;21.50;38.70;;;;;;475254;249;1914;-44
2023/01/09 10:40:21;;;;;;;;;;;21.50;38.60;;;;;;475474;249;2319;-44
2023/01/09 10:42:22;;;;;;;;;;;21.50;38.50;;;;;;475039;249;1384;-44
2023/01/09 10:44:24;;;;;;;;;;;21.60;38.60;;;;;;475324;249;2459;-44
2023/01/09 10:46:25;;;;;;;;;;;21.50;38.60;;;;;;475162;249;1667;-44
2023/01/09 10:48:26;;;;;;;;;;;21.60;38.60;;;;;;475374;249;1918;-44
2023/01/09 10:50:28;;;;;;;;;;;21.50;38.60;;;;;;475341;249;1610;-45
2023/01/09 10:52:29;;;;;;;;;;;21.50;38.60;;;;;;475140;249;2185;-44
2023/01/09 10:54:30;;;;;;;;;;;21.50;38.60;;;;;;475271;249;1712;-45
2023/01/09 10:56:32;;;;;;;;;;;21.50;38.60;;;;;;475145;249;1413;-44
2023/01/09 10:58:33;;;;;;;;;;;21.50;38.50;;;;;;475363;249;1936;-44
2023/01/09 11:00:34;;;;;;;;;;;21.50;38.50;;;;;;475313;249;2106;-45
2023/01/09 11:02:36;;;;;;;;;;;21.50;38.60;;;;;;475256;249;1887;-44
2023/01/09 11:04:37;;;;;;;;;;;21.50;38.50;;;;;;475388;249;1643;-44
2023/01/09 11:06:38;;;;;;;;;;;21.50;38.50;;;;;;474964;249;1567;-45
2023/01/09 11:08:40;;;;;;;;;;;21.40;38.50;;;;;;475305;249;1789;-44
2023/01/09 11:10:41;;;;;;;;;;;21.40;38.40;;;;;;475168;249;1896;-45
2023/01/09 11:12:42;;;;;;;;;;;21.50;38.50;;;;;;475116;249;2188;-45
2023/01/09 11:14:43;;;;;;;;;;;21.50;38.40;;;;;;475253;249;1933;-44
2023/01/09 11:16:45;;;;;;;;;;;21.50;38.40;;;;;;475272;249;1529;-44
2023/01/09 11:18:46;;;;;;;;;;;21.40;38.50;;;;;;475296;249;2549;-45
2023/01/09 11:20:47;;;;;;;;;;;21.40;38.40;;;;;;475256;249;1776;-44
2023/01/09 11:22:49;;;;;;;;;;;21.40;38.40;;;;;;475321;249;1750;-44
2023/01/09 11:24:50;;;;;;;;;;;21.50;38.40;;;;;;475266;249;1589;-44
2023/01/09 11:26:51;;;;;;;;;;;21.40;38.40;;;;;;475182;249;1713;-44
2023/01/09 11:28:53;;;;;;;;;;;21.40;38.40;;;;;;475317;249;1654;-44
2023/01/09 11:30:54;;;;;;;;;;;21.40;38.40;;;;;;475386;249;2317;-45
2023/01/09 11:32:55;;;;;;;;;;;21.50;38.30;;;;;;475342;249;2199;-44
2023/01/09 11:34:57;;;;;;;;;;;21.40;38.20;;;;;;475415;249;1505;-44
2023/01/09 11:36:58;;;;;;;;;;;21.50;38.20;;;;;;475290;249;1805;-45
2023/01/09 11:38:59;;;;;;;;;;;21.50;38.20;;;;;;475299;249;1878;-45
2023/01/09 11:41:01;;;;;;;;;;;21.50;38.10;;;;;;475234;249;2120;-44
2023/01/09 11:43:02;;;;;;;;;;;21.50;38.10;;;;;;475253;249;2522;-45
2023/01/09 11:45:03;;;;;;;;;;;21.50;38.10;;;;;;475235;249;1695;-44
2023/01/09 11:47:05;;;;;;;;;;;21.50;38.10;;;;;;475454;249;1831;-44
2023/01/09 11:49:06;;;;;;;;;;;21.50;38.10;;;;;;475314;249;2171;-44
2023/01/09 11:51:07;;;;;;;;;;;21.50;38.10;;;;;;475396;249;2140;-45
2023/01/09 11:53:09;;;;;;;;;;;21.50;38.00;;;;;;475399;249;2200;-45
2023/01/09 11:55:10;;;;;;;;;;;21.50;38.00;;;;;;475334;249;1749;-45
2023/01/09 11:57:11;;;;;;;;;;;21.50;37.90;;;;;;475247;249;1700;-44
2023/01/09 11:59:13;;;;;;;;;;;21.50;37.90;;;;;;475472;249;2146;-44
2023/01/09 12:01:14;;;;;;;;;;;21.50;37.90;;;;;;475115;249;1777;-45
2023/01/09 12:03:15;;;;;;;;;;;21.60;37.90;;;;;;475221;249;1739;-44
2023/01/09 12:05:17;;;;;;;;;;;21.50;37.90;;;;;;475322;249;1745;-45
2023/01/09 12:07:18;;;;;;;;;;;21.50;37.80;;;;;;475217;249;1800;-45
2023/01/09 12:09:19;;;;;;;;;;;21.50;37.80;;;;;;475329;249;1824;-45
2023/01/09 12:11:21;;;;;;;;;;;21.50;37.80;;;;;;475193;249;1588;-44